Time;durP1;ratioP1;P1;durP2;ratioP2;P2;SDS_P1;SDS_P2;PMS_P1;PMS_P2;Temp;Humidity;BMP_temperature;BMP_pressure;BME280_temperature;BME280_humidity;BME280_pressure;Samples;Min_cycle;Max_cycle;Signal;HPM_P1;HPM_P2
2023/07/14 00:00:30;;;;;;;7.40;4.20;;;;;;;14.34;94.16;101096.77;106544;1256;61264;-72
2023/07/14 00:02:58;;;;;;;5.80;4.00;;;;;;;14.29;94.37;101099.60;106566;1257;73899;-72
2023/07/14 00:05:29;;;;;;;7.30;4.20;;;;;;;14.24;94.53;101096.44;106561;1256;70353;-72
2023/07/14 00:07:56;;;;;;;7.10;4.20;;;;;;;14.20;95.15;101100.12;106730;1256;72454;-72
2023/07/14 00:10:25;;;;;;;7.00;4.20;;;;;;;14.17;95.37;101093.64;106657;1255;62639;-72
2023/07/14 00:12:52;;;;;;;6.00;4.30;;;;;;;14.14;95.37;101095.04;106854;1256;61266;-72
2023/07/14 00:15:23;;;;;;;7.50;4.50;;;;;;;14.11;95.53;101093.87;106826;1259;74959;-72
2023/07/14 00:17:55;;;;;;;8.10;4.60;;;;;;;14.08;95.85;101093.97;106998;1256;69051;-73
2023/07/14 00:20:26;;;;;;;6.70;4.40;;;;;;;14.06;96.12;101090.52;106501;1256;71891;-73
2023/07/14 00:22:54;;;;;;;6.70;4.30;;;;;;;14.04;96.17;101092.02;106622;1256;62079;-72
2023/07/14 00:25:23;;;;;;;7.20;4.40;;;;;;;14.03;96.33;101091.40;106737;1262;61292;-73
2023/07/14 00:27:56;;;;;;;6.80;4.40;;;;;;;14.02;96.25;101090.80;106756;1256;74065;-73
2023/07/14 00:30:25;;;;;;;5.70;4.20;;;;;;;14.01;96.33;101088.85;106666;1257;72514;-72
2023/07/14 00:32:54;;;;;;;6.20;4.80;;;;;;;13.99;96.51;101089.99;106956;1256;72095;-72
2023/07/14 00:35:25;;;;;;;5.90;4.50;;;;;;;13.99;96.48;101092.83;106712;1257;62156;-72
2023/07/14 00:37:54;;;;;;;7.40;4.90;;;;;;;13.97;96.22;101087.88;106691;1256;61296;-73
2023/07/14 00:40:38;;;;;;;5.70;4.50;;;;;;;13.95;96.39;101086.70;106715;1256;73393;-73
2023/07/14 00:43:14;;;;;;;7.80;4.90;;;;;;;13.93;96.52;101089.46;106500;1256;71252;-72
2023/07/14 00:45:41;;;;;;;6.90;4.60;;;;;;;13.91;96.62;101089.48;106558;1256;72712;-72
2023/07/14 00:48:14;;;;;;;7.40;4.70;;;;;;;13.89;96.65;101089.75;106689;1257;61279;-74
2023/07/14 00:50:45;;;;;;;8.30;4.80;;;;;;;13.88;96.72;101088.10;107218;1257;61257;-71
2023/07/14 00:53:28;;;;;;;8.10;4.80;;;;;;;13.86;96.74;101086.39;106646;1256;74935;-72
2023/07/14 00:55:57;;;;;;;6.10;4.60;;;;;;;13.83;96.79;101083.66;106664;1256;71242;-72
2023/07/14 00:58:27;;;;;;;6.90;4.90;;;;;;;13.81;96.83;101086.30;106969;1256;71646;-71
2023/07/14 01:01:10;;;;;;;6.40;4.40;;;;;;;13.79;96.97;101085.86;106606;1263;61733;-72
2023/07/14 01:03:40;;;;;;;7.60;4.90;;;;;;;13.76;97.24;101086.23;106585;1256;61237;-72
2023/07/14 01:06:16;;;;;;;8.60;4.80;;;;;;;13.74;97.01;101083.45;106764;1256;73324;-73
2023/07/14 01:09:08;;;;;;;9.00;5.00;;;;;;;13.71;97.07;101079.64;106596;1257;71230;-72
2023/07/14 01:11:46;;;;;;;8.80;4.80;;;;;;;13.69;97.41;101076.96;106765;1262;72777;-72
2023/07/14 01:14:21;;;;;;;9.20;4.80;;;;;;;13.67;97.34;101074.27;106941;1256;61225;-72
2023/07/14 01:16:51;;;;;;;6.90;4.90;;;;;;;13.66;97.49;101072.78;108920;1256;59123;-73
2023/07/14 01:19:47;;;;;;;7.60;4.50;;;;;;;13.66;97.77;101069.20;108607;1257;73697;-73
2023/07/14 01:22:40;;;;;;;8.00;4.80;;;;;;;13.66;97.75;101062.62;106668;1259;70924;-72
2023/07/14 01:25:23;;;;;;;7.30;4.80;;;;;;;13.66;97.69;101066.55;108201;1256;71970;-73
2023/07/14 01:27:50;;;;;;;9.70;5.00;;;;;;;13.66;97.57;101065.14;107134;1256;61247;-73
2023/07/14 01:30:19;;;;;;;7.50;5.00;;;;;;;13.64;97.71;101062.34;106537;1261;61354;-73
2023/07/14 01:32:48;;;;;;;7.10;5.10;;;;;;;13.63;97.78;101063.27;106665;1256;73447;-72
2023/07/14 01:35:17;;;;;;;6.90;5.10;;;;;;;13.61;97.73;101064.67;106799;1257;71242;-72
2023/07/14 01:37:45;;;;;;;7.60;5.20;;;;;;;13.59;97.77;101062.27;106342;1257;370470;-73
2023/07/14 01:40:15;;;;;;;7.70;5.60;;;;;;;13.57;98.13;101062.40;106547;1256;61744;-73
2023/07/14 01:42:45;;;;;;;9.00;5.20;;;;;;;13.54;98.04;101063.40;106626;1256;61823;-73
2023/07/14 01:45:16;;;;;;;8.50;5.40;;;;;;;13.52;98.38;101066.41;107136;1257;73162;-73
2023/07/14 01:47:45;;;;;;;11.00;5.30;;;;;;;13.50;98.52;101065.73;106689;1256;71085;-72
2023/07/14 01:50:21;;;;;;;8.30;5.30;;;;;;;13.47;98.61;101063.52;106877;1256;71124;-72
2023/07/14 01:52:52;;;;;;;8.70;5.00;;;;;;;13.45;98.64;101062.14;106520;1257;61753;-73
2023/07/14 01:55:21;;;;;;;8.00;5.60;;;;;;;13.44;98.72;101065.70;106819;1257;61165;-76
2023/07/14 01:57:53;;;;;;;8.80;5.50;;;;;;;13.42;98.97;101067.55;106502;1262;73501;-73
2023/07/14 02:00:20;;;;;;;9.40;5.50;;;;;;;13.40;99.05;101063.66;106818;1256;72648;-72
2023/07/14 02:02:49;;;;;;;8.80;5.60;;;;;;;13.38;99.18;101063.80;107118;1256;72633;-72
2023/07/14 02:05:25;;;;;;;8.30;5.60;;;;;;;13.36;99.17;101064.31;106499;1256;61363;-72
2023/07/14 02:07:53;;;;;;;8.60;5.30;;;;;;;13.34;99.24;101067.20;106647;1257;61327;-71
2023/07/14 02:10:21;;;;;;;11.30;5.70;;;;;;;13.33;99.29;101064.02;106553;1262;73504;-73
2023/07/14 02:12:49;;;;;;;7.50;5.70;;;;;;;13.32;99.60;101064.98;106786;1260;70249;-74
2023/07/14 02:15:29;;;;;;;8.10;5.80;;;;;;;13.30;99.84;101060.38;106605;1257;72994;-72
2023/07/14 02:17:56;;;;;;;9.20;6.00;;;;;;;13.29;99.73;101059.15;106636;1257;62109;-73
2023/07/14 02:20:32;;;;;;;9.90;5.70;;;;;;;13.28;99.98;101065.48;106578;1257;61460;-71
2023/07/14 02:23:02;;;;;;;7.50;5.90;;;;;;;13.26;99.96;101065.16;107184;1256;75271;-71
2023/07/14 02:25:37;;;;;;;7.80;5.60;;;;;;;13.25;99.86;101066.91;106563;1257;71235;-71
2023/07/14 02:28:04;;;;;;;7.50;5.70;;;;;;;13.22;99.85;101067.73;106497;1257;72571;-71
2023/07/14 02:30:33;;;;;;;9.10;6.30;;;;;;;13.20;99.95;101073.11;106658;1262;61270;-72
2023/07/14 02:33:06;;;;;;;8.00;6.00;;;;;;;13.18;99.95;101070.14;106439;1262;61183;-72
2023/07/14 02:35:53;;;;;;;8.40;6.10;;;;;;;13.16;99.97;101069.48;106570;1260;74848;-72
2023/07/14 02:38:20;;;;;;;7.40;5.90;;;;;;;13.14;100.00;101069.86;107031;1260;71247;-72
2023/07/14 02:41:07;;;;;;;8.60;5.80;;;;;;;13.11;100.00;101068.19;106732;1258;73639;-73
2023/07/14 02:43:34;;;;;;;9.50;6.40;;;;;;;13.09;99.99;101073.60;106660;1256;62120;-72
2023/07/14 02:46:19;;;;;;;10.40;6.30;;;;;;;13.06;100.00;101074.46;106649;1256;61333;-72
2023/07/14 02:48:50;;;;;;;8.80;6.10;;;;;;;13.03;100.00;101077.62;106671;1257;73204;-73
2023/07/14 02:51:17;;;;;;;8.70;6.30;;;;;;;13.00;100.00;101073.68;106728;1257;71156;-75
2023/07/14 02:53:44;;;;;;;10.20;6.40;;;;;;;12.98;100.00;101076.23;106503;1259;72028;-71
2023/07/14 02:56:11;;;;;;;9.80;6.50;;;;;;;12.97;100.00;101074.41;106882;1262;61751;-73
2023/07/14 02:58:38;;;;;;;8.60;6.20;;;;;;;12.96;100.00;101074.36;106585;1258;61316;-72
2023/07/14 03:01:05;;;;;;;9.40;6.50;;;;;;;12.96;100.00;101071.70;106696;1256;74620;-72
2023/07/14 03:03:34;;;;;;;8.20;6.60;;;;;;;12.95;100.00;101074.42;106587;1256;69946;-72
2023/07/14 03:06:01;;;;;;;9.50;6.70;;;;;;;12.96;100.00;101077.77;106439;1256;71329;-73
2023/07/14 03:08:28;;;;;;;9.20;6.40;;;;;;;12.95;100.00;101073.77;106462;1260;61356;-73
2023/07/14 03:10:57;;;;;;;10.70;6.40;;;;;;;12.95;100.00;101076.03;107021;1256;61244;-73
2023/07/14 03:13:25;;;;;;;7.90;6.40;;;;;;;12.95;100.00;101074.84;106968;1261;74032;-73
2023/07/14 03:15:52;;;;;;;10.70;6.90;;;;;;;12.96;100.00;101073.50;106451;1263;71503;-73
2023/07/14 03:18:19;;;;;;;9.40;6.60;;;;;;;12.97;100.00;101070.19;106788;1259;71331;-73
2023/07/14 03:20:46;;;;;;;9.20;6.90;;;;;;;12.97;100.00;101072.65;106819;1257;61339;-72
2023/07/14 03:23:13;;;;;;;10.30;6.80;;;;;;;12.98;100.00;101072.04;106748;1257;61317;-74
2023/07/14 03:25:41;;;;;;;10.60;6.90;;;;;;;12.97;100.00;101067.70;107008;1258;75382;-72
2023/07/14 03:28:08;;;;;;;12.60;7.10;;;;;;;12.97;100.00;101066.30;107064;1259;71328;-72
2023/07/14 03:30:40;;;;;;;11.60;7.10;;;;;;;12.97;100.00;101063.80;107407;1257;71763;-72
2023/07/14 03:33:07;;;;;;;10.20;7.10;;;;;;;12.98;100.00;101065.11;106711;1256;61695;-72
2023/07/14 03:35:34;;;;;;;11.00;7.50;;;;;;;12.98;100.00;101066.02;106908;1257;61214;-71
2023/07/14 03:38:01;;;;;;;11.00;7.40;;;;;;;12.97;100.00;101062.85;106674;1262;73780;-71
2023/07/14 03:40:28;;;;;;;11.40;7.40;;;;;;;12.97;100.00;101063.44;106973;1258;70241;-72
2023/07/14 03:42:55;;;;;;;12.80;7.00;;;;;;;12.97;100.00;101062.52;106734;1257;71801;-72
2023/07/14 03:45:22;;;;;;;11.20;7.20;;;;;;;12.97;100.00;101059.66;106859;1256;61250;-72
2023/07/14 03:47:52;;;;;;;10.80;6.70;;;;;;;12.98;100.00;101060.59;106940;1258;61241;-73
2023/07/14 03:50:21;;;;;;;9.30;7.00;;;;;;;13.00;100.00;101063.46;106665;1257;74344;-71
2023/07/14 03:52:48;;;;;;;10.00;6.70;;;;;;;13.01;100.00;101065.13;106924;1257;70245;-71
2023/07/14 03:55:15;;;;;;;11.00;6.50;;;;;;;13.01;100.00;101066.68;106865;1259;71442;-71
2023/07/14 03:57:42;;;;;;;10.30;7.30;;;;;;;13.02;100.00;101062.52;106753;1257;61288;-71
2023/07/14 04:00:28;;;;;;;11.60;6.70;;;;;;;13.03;100.00;101059.80;107037;1259;61127;-71
2023/07/14 04:02:54;;;;;;;9.30;6.50;;;;;;;13.05;100.00;101057.61;106835;1259;73516;-72
2023/07/14 04:05:21;;;;;;;10.60;6.50;;;;;;;13.07;100.00;101058.91;107067;1259;69947;-71
2023/07/14 04:07:48;;;;;;;9.50;7.00;;;;;;;13.10;100.00;101061.74;106412;1257;71483;-74
2023/07/14 04:10:15;;;;;;;10.50;6.70;;;;;;;13.12;100.00;101057.18;106854;1256;62049;-71
2023/07/14 04:12:42;;;;;;;11.10;6.50;;;;;;;13.16;100.00;101055.39;106759;1257;61193;-71
2023/07/14 04:15:09;;;;;;;9.10;6.80;;;;;;;13.18;100.00;101060.95;106874;1258;73453;-72
2023/07/14 04:17:37;;;;;;;9.20;6.40;;;;;;;13.21;100.00;101060.19;106529;1260;70051;-72
2023/07/14 04:20:05;;;;;;;9.10;6.10;;;;;;;13.25;100.00;101058.71;106761;1259;71136;-72
2023/07/14 04:22:32;;;;;;;8.10;5.90;;;;;;;13.30;100.00;101059.05;107085;1261;61248;-72
2023/07/14 04:24:59;;;;;;;10.70;6.30;;;;;;;13.34;100.00;101059.08;108475;1257;59804;-72
2023/07/14 04:27:27;;;;;;;9.10;6.20;;;;;;;13.38;100.00;101058.71;108868;1257;74775;-72
2023/07/14 04:29:53;;;;;;;10.20;5.70;;;;;;;13.43;100.00;101064.89;106710;1259;70552;-72
2023/07/14 04:32:20;;;;;;;9.50;5.60;;;;;;;13.49;100.00;101065.09;106799;1261;72218;-72
2023/07/14 04:34:49;;;;;;;7.80;5.50;;;;;;;13.55;100.00;101063.33;108251;1257;61229;-72
2023/07/14 04:37:16;;;;;;;9.30;5.30;;;;;;;13.61;100.00;101068.73;106707;1257;61272;-72
2023/07/14 04:39:44;;;;;;;9.10;5.20;;;;;;;13.70;100.00;101066.71;106980;1258;74707;-72
2023/07/14 04:42:12;;;;;;;6.80;5.60;;;;;;;13.79;100.00;101068.39;106895;1261;71192;-72
2023/07/14 04:44:39;;;;;;;7.60;5.30;;;;;;;13.89;100.00;101071.66;106835;1256;72709;-72
2023/07/14 04:47:06;;;;;;;8.30;4.80;;;;;;;13.99;100.00;101073.29;106686;1261;61716;-71
2023/07/14 04:49:33;;;;;;;7.30;4.90;;;;;;;14.09;100.00;101076.12;106583;1257;62458;-72
2023/07/14 04:52:01;;;;;;;7.40;5.00;;;;;;;14.20;100.00;101076.23;106666;1258;75905;-72
2023/07/14 04:54:28;;;;;;;8.30;4.60;;;;;;;14.29;100.00;101076.32;107148;1256;69968;-71
2023/07/14 04:56:55;;;;;;;8.80;4.80;;;;;;;14.38;99.93;101075.27;106871;1256;71928;-71
2023/07/14 04:59:22;;;;;;;9.50;4.50;;;;;;;14.49;99.71;101077.44;106940;1260;61373;-74
2023/07/14 05:01:50;;;;;;;10.30;4.50;;;;;;;14.59;99.40;101071.79;106523;1256;61356;-73
2023/07/14 05:04:16;;;;;;;9.10;4.50;;;;;;;14.68;98.82;101067.91;106967;1257;75865;-74
2023/07/14 05:06:43;;;;;;;8.90;4.40;;;;;;;14.79;98.38;101069.27;106675;1257;68654;-73
2023/07/14 05:09:10;;;;;;;6.90;3.80;;;;;;;14.88;97.65;101063.85;106732;1257;73762;-74
2023/07/14 05:11:38;;;;;;;7.00;4.30;;;;;;;14.97;97.15;101067.28;107007;1256;61266;-74
2023/07/14 05:14:06;;;;;;;7.00;4.00;;;;;;;15.07;96.84;101063.02;106959;1259;61698;-74
2023/07/14 05:16:33;;;;;;;7.60;4.00;;;;;;;15.19;96.30;101062.58;107151;1262;73210;-73
2023/07/14 05:19:00;;;;;;;7.20;4.00;;;;;;;15.31;95.69;101057.66;106709;1257;69908;-74
2023/07/14 05:21:27;;;;;;;6.30;3.80;;;;;;;15.44;95.31;101052.39;106835;1260;72796;-74
2023/07/14 05:23:54;;;;;;;7.30;3.70;;;;;;;15.59;94.86;101056.45;106525;1257;61827;-73
2023/07/14 05:26:21;;;;;;;6.70;3.80;;;;;;;15.73;94.19;101058.13;106686;1263;61240;-74
2023/07/14 05:28:48;;;;;;;7.80;3.40;;;;;;;15.89;93.93;101059.42;107025;1258;73682;-73
2023/07/14 05:31:15;;;;;;;6.80;3.90;;;;;;;16.04;92.68;101064.82;106940;1257;69893;-73
2023/07/14 05:33:42;;;;;;;5.70;3.50;;;;;;;16.18;92.22;101063.66;106861;1257;71289;-73
2023/07/14 05:36:09;;;;;;;7.50;3.60;;;;;;;16.30;91.05;101062.20;106618;1262;62181;-73
2023/07/14 05:38:36;;;;;;;6.20;3.60;;;;;;;16.41;90.10;101059.42;107033;1257;61164;-72
2023/07/14 05:41:04;;;;;;;6.20;3.10;;;;;;;16.52;89.21;101059.51;106554;1257;74672;-72
2023/07/14 05:43:31;;;;;;;6.80;3.30;;;;;;;16.64;88.85;101060.05;106655;1257;70203;-73
2023/07/14 05:45:58;;;;;;;5.40;3.40;;;;;;;16.76;88.10;101061.15;106760;1260;72679;-73
2023/07/14 05:48:26;;;;;;;4.00;3.20;;;;;;;16.88;87.65;101061.42;106742;1257;61349;-73
2023/07/14 05:50:53;;;;;;;5.40;2.90;;;;;;;17.00;86.71;101058.03;106788;1257;61923;-73
2023/07/14 05:53:20;;;;;;;5.30;3.00;;;;;;;17.14;86.19;101063.00;106738;1257;74730;-73
2023/07/14 05:55:47;;;;;;;5.30;2.90;;;;;;;17.27;85.18;101059.38;106604;1257;71057;-73
2023/07/14 05:58:15;;;;;;;5.30;2.90;;;;;;;17.40;84.53;101057.20;106732;1257;71131;-75
2023/07/14 06:00:42;;;;;;;6.10;2.90;;;;;;;17.54;83.72;101055.45;106729;1256;61785;-74
2023/07/14 06:03:13;;;;;;;5.70;3.20;;;;;;;17.72;83.88;101053.39;107000;1257;61358;-73
2023/07/14 06:05:40;;;;;;;5.10;2.90;;;;;;;17.89;82.51;101050.98;106599;1257;73471;-73
2023/07/14 06:08:07;;;;;;;7.30;3.30;;;;;;;18.06;82.16;101047.92;106895;1256;70010;-73
2023/07/14 06:10:34;;;;;;;5.50;3.00;;;;;;;18.24;81.67;101049.84;107365;1257;72689;-74
2023/07/14 06:13:02;;;;;;;5.00;3.20;;;;;;;18.43;80.90;101047.59;106805;1260;62154;-73
2023/07/14 06:15:29;;;;;;;7.50;3.10;;;;;;;18.56;78.67;101049.68;107360;1256;59997;-73
2023/07/14 06:17:56;;;;;;;7.30;3.40;;;;;;;18.65;78.83;101044.73;108733;1256;74795;-73
2023/07/14 06:20:23;;;;;;;6.00;2.80;;;;;;;18.78;77.76;101041.52;109018;1257;69753;-74
2023/07/14 06:22:50;;;;;;;5.50;3.00;;;;;;;18.91;77.87;101033.27;108780;1257;71594;-73
2023/07/14 06:25:18;;;;;;;7.50;3.40;;;;;;;19.05;77.21;101030.27;108631;1257;61916;-73
2023/07/14 06:27:45;;;;;;;5.70;2.90;;;;;;;19.20;76.83;101030.83;107718;1256;61148;-72
2023/07/14 06:30:13;;;;;;;5.10;2.60;;;;;;;19.38;76.53;101024.15;108438;1257;73176;-74
2023/07/14 06:32:40;;;;;;;7.20;3.10;;;;;;;19.56;75.98;101022.91;108185;1256;70632;-73
2023/07/14 06:35:08;;;;;;;7.00;3.00;;;;;;;19.71;75.24;101020.95;106946;1257;70659;-74
2023/07/14 06:37:35;;;;;;;5.60;2.90;;;;;;;19.88;74.60;101020.70;106838;1256;61127;-74
2023/07/14 06:40:03;;;;;;;7.10;3.00;;;;;;;20.06;74.51;101023.48;106703;1256;61674;-75
2023/07/14 06:42:31;;;;;;;4.60;2.90;;;;;;;20.20;73.41;101028.21;106721;1257;73164;-73
2023/07/14 06:44:58;;;;;;;5.60;2.90;;;;;;;20.31;72.43;101028.21;106997;1257;69829;-73
2023/07/14 06:47:25;;;;;;;6.60;2.60;;;;;;;20.37;71.77;101030.23;107620;1258;72217;-72
2023/07/14 06:49:52;;;;;;;7.30;3.00;;;;;;;20.38;70.69;101027.90;106384;1257;61209;-73
2023/07/14 06:52:19;;;;;;;5.80;2.60;;;;;;;20.35;70.66;101022.70;106585;1257;61192;-73
2023/07/14 06:54:46;;;;;;;7.30;2.70;;;;;;;20.36;70.88;101028.76;106688;1257;74664;-73
2023/07/14 06:57:13;;;;;;;7.90;3.00;;;;;;;20.36;70.83;101030.00;106829;1256;72071;-73
2023/07/14 06:59:41;;;;;;;5.80;3.10;;;;;;;20.38;70.77;101027.52;106733;1262;73099;-72
2023/07/14 07:02:12;;;;;;;6.40;3.20;;;;;;;20.39;69.88;101024.73;106907;1256;61246;-69
2023/07/14 07:04:39;;;;;;;8.20;3.80;;;;;;;20.40;69.87;101024.55;107032;1256;61151;-70
2023/07/14 07:07:06;;;;;;;6.30;3.00;;;;;;;20.42;69.23;101022.86;107046;1257;75129;-72
2023/07/14 07:09:33;;;;;;;6.90;3.50;;;;;;;20.44;68.53;101024.52;106530;1257;71193;-70
2023/07/14 07:12:00;;;;;;;8.70;3.60;;;;;;;20.47;68.85;101022.20;106902;1257;71454;-71
2023/07/14 07:14:27;;;;;;;6.80;3.30;;;;;;;20.53;68.75;101019.00;107170;1257;61362;-69
2023/07/14 07:16:54;;;;;;;6.10;2.90;;;;;;;20.61;68.31;101023.23;106870;1256;61224;-70
2023/07/14 07:19:22;;;;;;;6.80;2.80;;;;;;;20.67;67.45;101023.13;106864;1257;73626;-71
2023/07/14 07:21:51;;;;;;;6.00;3.30;;;;;;;20.78;67.33;101024.51;106445;1257;71226;-71
2023/07/14 07:24:18;;;;;;;6.80;3.20;;;;;;;20.90;66.32;101023.98;106823;1261;72021;-71
2023/07/14 07:26:45;;;;;;;6.20;3.20;;;;;;;20.94;65.28;101028.25;107969;1257;62004;-71
2023/07/14 07:29:12;;;;;;;4.60;2.50;;;;;;;20.96;65.12;101022.11;108835;1255;61540;-71
2023/07/14 07:31:39;;;;;;;5.50;2.60;;;;;;;21.04;65.38;101023.38;108259;1256;73456;-70
2023/07/14 07:34:06;;;;;;;6.60;2.60;;;;;;;21.10;64.82;101022.30;107074;1260;72072;-70
2023/07/14 07:36:33;;;;;;;5.30;2.60;;;;;;;21.13;64.03;101023.98;107463;1257;73705;-70
2023/07/14 07:39:00;;;;;;;4.80;2.60;;;;;;;21.18;64.34;101021.08;108825;1256;60405;-70
2023/07/14 07:41:26;;;;;;;6.30;2.90;;;;;;;21.24;63.33;101018.10;109033;1255;60382;-69
2023/07/14 07:43:54;;;;;;;5.90;2.80;;;;;;;21.30;63.00;101012.90;107528;1256;75097;-70
2023/07/14 07:46:21;;;;;;;5.50;2.90;;;;;;;21.35;62.45;101011.91;107067;1256;72029;-69
2023/07/14 07:48:51;;;;;;;5.70;2.80;;;;;;;21.41;62.80;101008.76;106839;1256;72726;-70
2023/07/14 07:51:18;;;;;;;7.30;3.50;;;;;;;21.52;62.57;101008.58;106886;1258;61359;-69
2023/07/14 07:53:47;;;;;;;7.70;3.50;;;;;;;21.57;62.49;101010.34;106422;1257;61301;-69
2023/07/14 07:56:14;;;;;;;6.00;2.90;;;;;;;21.58;62.01;101005.50;106993;1257;75143;-69
2023/07/14 07:58:42;;;;;;;7.60;3.20;;;;;;;21.57;61.16;101003.27;106848;1256;71035;-68
2023/07/14 08:01:19;;;;;;;6.10;3.20;;;;;;;21.57;61.74;101003.04;106628;1256;72618;-69
2023/07/14 08:03:46;;;;;;;4.40;2.50;;;;;;;21.64;62.00;100995.46;106391;1260;61167;-69
2023/07/14 08:06:13;;;;;;;6.90;3.30;;;;;;;21.74;61.10;100998.18;106832;1257;61140;-69
2023/07/14 08:08:41;;;;;;;6.10;3.20;;;;;;;21.78;59.91;100997.92;106923;1258;74702;-69
2023/07/14 08:11:12;;;;;;;4.20;2.60;;;;;;;21.83;59.90;100994.00;107031;1256;70943;-69
2023/07/14 08:13:40;;;;;;;7.40;2.70;;;;;;;21.88;59.98;100993.73;106826;1257;72743;-68
2023/07/14 08:16:06;;;;;;;6.10;2.70;;;;;;;21.95;59.91;100993.96;107091;1256;61413;-69
2023/07/14 08:18:33;;;;;;;5.60;2.30;;;;;;;21.99;59.21;100996.70;106751;1257;61240;-69
2023/07/14 08:21:01;;;;;;;5.60;2.90;;;;;;;21.97;59.03;100996.33;106781;1256;74663;-69
2023/07/14 08:23:29;;;;;;;4.20;2.30;;;;;;;21.99;59.39;100993.13;106408;1257;69968;-68
2023/07/14 08:26:03;;;;;;;4.00;1.80;;;;;;;22.06;59.01;100994.91;106812;1257;71604;-69
2023/07/14 08:28:30;;;;;;;4.50;2.10;;;;;;;22.13;58.29;100996.48;106575;1256;61285;-68
2023/07/14 08:31:00;;;;;;;4.90;2.20;;;;;;;22.22;58.45;100995.46;106843;1256;61276;-69
2023/07/14 08:33:27;;;;;;;4.60;2.00;;;;;;;22.33;57.76;100995.98;106664;1259;73239;-68
2023/07/14 08:36:00;;;;;;;3.60;1.90;;;;;;;22.44;57.45;100992.20;106751;1257;70080;-70
2023/07/14 08:38:28;;;;;;;3.40;1.70;;;;;;;22.54;56.42;100991.86;106913;1256;71185;-69
2023/07/14 08:40:55;;;;;;;3.40;1.50;;;;;;;22.61;56.80;100991.02;106657;1257;62026;-69
2023/07/14 08:43:31;;;;;;;4.90;2.20;;;;;;;22.74;57.31;100989.34;106873;1256;61226;-69
2023/07/14 08:46:10;;;;;;;6.40;2.30;;;;;;;22.91;57.70;100986.70;107447;1255;74543;-70
2023/07/14 08:48:42;;;;;;;4.90;1.90;;;;;;;23.12;56.03;100984.58;106480;1256;70938;-69
2023/07/14 08:51:18;;;;;;;4.90;1.90;;;;;;;23.31;55.49;100982.09;106790;1256;71901;-68
2023/07/14 08:53:49;;;;;;;5.30;2.20;;;;;;;23.41;55.13;100979.79;106821;1257;61278;-70
2023/07/14 08:56:19;;;;;;;5.30;1.90;;;;;;;23.43;55.32;100975.86;106941;1257;61145;-70
2023/07/14 08:58:48;;;;;;;4.50;2.00;;;;;;;23.42;54.93;100975.94;106442;1257;75714;-69
2023/07/14 09:01:30;;;;;;;7.20;2.90;;;;;;;23.49;55.17;100978.30;106692;1256;71002;-70
2023/07/14 09:04:03;;;;;;;4.40;2.20;;;;;;;23.55;54.50;100977.48;106618;1256;71211;-69
2023/07/14 09:06:33;;;;;;;5.60;1.80;;;;;;;23.60;54.27;100975.59;106604;1256;61355;-68
2023/07/14 09:09:00;;;;;;;4.60;1.80;;;;;;;23.74;54.04;100974.07;107016;1256;61655;-70
2023/07/14 09:11:36;;;;;;;5.00;2.10;;;;;;;23.87;53.92;100970.25;107015;1256;73711;-69
2023/07/14 09:14:27;;;;;;;5.60;1.90;;;;;;;24.00;52.74;100964.85;106819;1256;71408;-70
2023/07/14 09:17:24;;;;;;;3.80;1.60;;;;;;;24.12;51.16;100966.98;106900;1261;72778;-68
2023/07/14 09:20:11;;;;;;;4.60;1.70;;;;;;;24.14;46.78;100965.02;106612;1257;61279;-69
2023/07/14 09:22:57;;;;;;;3.60;1.30;;;;;;;24.20;47.36;100963.33;106846;1255;61246;-69
2023/07/14 09:25:29;;;;;;;3.40;1.50;;;;;;;24.17;45.01;100960.48;106855;1255;74503;-69
2023/07/14 09:27:56;;;;;;;4.00;1.80;;;;;;;24.16;45.62;100960.20;106964;1256;71167;-69
2023/07/14 09:30:28;;;;;;;3.60;1.50;;;;;;;24.14;46.02;100957.33;106592;1256;71549;-70
2023/07/14 09:33:01;;;;;;;3.20;1.70;;;;;;;24.17;46.08;100957.23;106424;1256;61705;-70
2023/07/14 09:35:29;;;;;;;4.50;1.60;;;;;;;24.20;47.66;100951.83;107055;1256;61285;-69
2023/07/14 09:38:03;;;;;;;4.50;1.60;;;;;;;24.33;48.40;100951.27;106954;1256;73982;-69
2023/07/14 09:40:36;;;;;;;3.80;1.60;;;;;;;24.49;47.45;100941.58;106815;1256;68847;-70
2023/07/14 09:43:05;;;;;;;3.80;1.60;;;;;;;24.52;45.03;100943.02;106822;1257;73156;-70
2023/07/14 09:45:35;;;;;;;4.60;1.70;;;;;;;24.50;44.97;100948.64;107304;1260;59228;-69
2023/07/14 09:48:11;;;;;;;3.60;1.50;;;;;;;24.44;44.78;100944.52;107074;1256;61315;-69
2023/07/14 09:50:48;;;;;;;4.80;1.50;;;;;;;24.41;44.82;100939.23;106578;1256;75204;-68
2023/07/14 09:53:15;;;;;;;3.10;1.40;;;;;;;24.45;45.79;100935.24;106638;1257;71291;-69
2023/07/14 09:55:52;;;;;;;4.30;1.50;;;;;;;24.53;45.84;100929.35;106739;1257;72678;-69
2023/07/14 09:58:25;;;;;;;3.50;1.40;;;;;;;24.71;45.80;100929.95;106823;1256;61137;-69
2023/07/14 10:00:55;;;;;;;2.80;1.30;;;;;;;24.84;42.54;100937.27;107003;1256;61208;-69
2023/07/14 10:03:29;;;;;;;2.50;1.50;;;;;;;24.92;42.58;100929.87;107188;1256;74651;-69
2023/07/14 10:06:38;;;;;;;2.40;1.30;;;;;;;25.02;41.72;100924.96;107030;1256;71577;-69
2023/07/14 10:09:11;;;;;;;2.90;1.30;;;;;;;25.21;41.44;100920.21;107247;1256;72794;-68
2023/07/14 10:11:50;;;;;;;3.00;1.40;;;;;;;25.30;39.90;100924.97;106919;1262;61334;-69
2023/07/14 10:14:19;;;;;;;4.00;1.40;;;;;;;25.22;40.58;100917.19;107405;1256;60936;-69
2023/07/14 10:16:47;;;;;;;3.90;1.40;;;;;;;25.21;40.67;100912.48;107001;1256;74955;-69
2023/07/14 10:19:21;;;;;;;3.20;1.30;;;;;;;25.30;40.93;100904.93;107318;1256;71661;-69
2023/07/14 10:21:55;;;;;;;2.40;1.40;;;;;;;25.42;40.84;100903.70;106993;1255;71325;-69
2023/07/14 10:24:23;;;;;;;3.00;1.40;;;;;;;25.46;40.00;100901.59;107349;1256;61602;-69
2023/07/14 10:27:01;;;;;;;3.70;1.50;;;;;;;25.29;39.78;100898.04;108261;1256;60511;-70
2023/07/14 10:29:46;;;;;;;3.60;1.40;;;;;;;25.09;40.19;100895.63;108702;1256;73236;-70
2023/07/14 10:32:31;;;;;;;2.50;1.30;;;;;;;24.90;40.90;100893.88;106956;1256;71680;-69
2023/07/14 10:35:21;;;;;;;3.80;1.50;;;;;;;24.92;41.42;100892.42;108330;1257;73780;-69
2023/07/14 10:38:19;;;;;;;3.00;1.50;;;;;;;25.14;42.07;100887.83;107347;1259;61180;-69
2023/07/14 10:40:55;;;;;;;3.10;1.50;;;;;;;25.34;41.20;100888.50;106966;1256;60844;-69
2023/07/14 10:43:28;;;;;;;4.00;1.60;;;;;;;25.48;40.97;100883.35;107060;1256;73467;-69
2023/07/14 10:45:59;;;;;;;3.80;1.70;;;;;;;25.70;40.51;100881.73;107169;1256;72484;-70
2023/07/14 10:48:32;;;;;;;3.50;1.60;;;;;;;25.90;40.18;100881.62;107087;1256;71433;-70
2023/07/14 10:51:11;;;;;;;5.20;1.70;;;;;;;26.17;39.95;100885.26;106974;1256;61722;-70
2023/07/14 10:53:46;;;;;;;2.30;1.20;;;;;;;26.23;38.96;100880.45;107220;1261;61253;-69
2023/07/14 10:56:29;;;;;;;4.50;1.70;;;;;;;26.12;39.19;100877.65;107200;1256;74509;-69
2023/07/14 10:59:12;;;;;;;4.50;1.70;;;;;;;26.23;39.45;100869.46;107018;1256;69994;-69
2023/07/14 11:01:46;;;;;;;4.00;1.60;;;;;;;26.53;40.13;100866.08;107156;1256;71650;-70
2023/07/14 11:04:31;;;;;;;3.80;1.70;;;;;;;26.93;39.04;100859.65;107057;1255;61299;-70
2023/07/14 11:07:00;;;;;;;3.80;1.60;;;;;;;27.01;38.01;100862.11;107146;1256;61380;-69
2023/07/14 11:09:28;;;;;;;3.50;1.50;;;;;;;26.93;38.36;100862.55;106889;1256;75859;-69
2023/07/14 11:12:01;;;;;;;5.60;1.70;;;;;;;27.05;39.36;100855.34;106831;1256;71295;-69
2023/07/14 11:14:27;;;;;;;3.90;1.60;;;;;;;27.15;38.47;100854.52;106673;1260;71970;-69
2023/07/14 11:17:06;;;;;;;4.00;1.70;;;;;;;27.07;37.99;100857.89;106997;1256;61308;-69
2023/07/14 11:20:27;;;;;;;3.00;1.50;;;;;;;26.89;38.29;100857.23;106616;1256;61266;-69
2023/07/14 11:23:23;;;;;;;2.90;1.70;;;;;;;26.85;38.60;100853.38;106530;1257;74082;-68
2023/07/14 11:26:16;;;;;;;3.60;1.60;;;;;;;26.89;37.98;100847.36;106847;1254;70460;-69
2023/07/14 11:28:51;;;;;;;5.20;1.70;;;;;;;26.83;38.21;100841.31;106764;1256;72772;-68
2023/07/14 11:31:23;;;;;;;3.30;1.60;;;;;;;26.74;38.45;100845.70;106909;1256;61138;-69